Nome, AK

9:26 PM AKST on November 28, 2014 (GMT -0900)
Dexter | Change Station
CLOSE
Current Station
Personal Weather Station
Location: Nome, AK
Elevation: 45 ft
Nearby Weather Stations

Elev 45 ft 64.58 °N, 165.27 °W | Updated 55 seconds ago

Mist
Mist
28.5 °F
Feels Like 20 °F
N
9.0
Wind Variable Wind from South
Gusts 9.0 mph

Today
High -- | Low -- °F
--% Chance of Precip.
Yesterday
High -- | Low -- °F
Precip. -- in
11:17 AM 4:20 PM
Waxing Crescent, 48% visible
Pressure 29.99 in
Visibility 0.8 miles
Clouds
Windchill 20 °F
Dew Point 28 °F
Humidity 100%
Rainfall 0.00 in
Snow Depth Not available.
UV Not available.
Pollen Not available.
Air Quality Not available.
Flu Activity Not available.
METAR PAOM 290553Z 10011KT 3/4SM R28/3500V4000FT BR VV003 M02/M02 A2999 RMK SLP155 4/008 60000 I1004 I6009 T10171017 11017 21022 51004 VIA AUTODIAL

More Conditions Fewer Conditions

Pressure 29.99 in
Visibility 0.8 miles
Clouds
Windchill 20 °F
Dew Point 28 °F
Humidity 100%
Rainfall 0.00 in
Snow Depth Not available.
UV Not available.
Pollen Not available.
Air Quality Not available.
Flu Activity Not available.
METAR PAOM 290553Z 10011KT 3/4SM R28/3500V4000FT BR VV003 M02/M02 A2999 RMK SLP155 4/008 60000 I1004 I6009 T10171017 11017 21022 51004 VIA AUTODIAL

More Conditions Fewer Conditions

10-Day Weather Forecast

Almanac

Astronomy

Nov. 28, 2014 Rise Set
Actual Time
Civil Twilight
Nautical Twilight
Astronomical Twilight
Moon
Length of Visible Light
Length of Day
Tomorrow will be .
, % of the Moon is Illuminated

Today's Extremes

State Highs State Lows

Community

WunderPhotos

Upload Photos

1,774,428 photos uploaded!

WunderBlogs® & News

Nearby

Air Quality

  Air Quality AQ Index Pollutant
Not available.

Snow Depth

Station Depth Elevation

Earthquake Activity

City Distance Mag. Time & Date
Minimum magnitude displayed is 2.5.

Coastal Water Temperatures

Place Temperature

Nearby Weather Stations